Cut Bank Municipal Airport
KCTB : now visible

Airfield :











YOU CAN JOIN US ON...

 
LOGIN :

Register | Disclaimer

   EN    FR    IT 

 









Legend :    VFR   Marginal VFR   IFR   Intensive IFR   Very Intensive IFR
Visi :
Ceiling :
>= 8 km
>= 3000ft
5 to 8 km
1000 to 3000 ft
1500m to 5 km
500 to 1000 ft
800 to 1500m
200 to 500 ft
< 800m
< 200 ft
Symbols :   Thunderstorms  Fog  Heavy snow  Heavy precipitations  Wind > 20 kt






- Airport Elevation : 3854 ft


KCTB - Cut Bank Municipal

CURRENT METAR :
  • 250756Z AUTO 27006KT 10SM CLR 07/02 A3004 RMK AO2 SLP167 T00670022

EXPIRED METARs :
  • 250656Z AUTO 25010KT 10SM CLR 08/03 A3004 RMK AO2 SLP165 T00830028 401780022
  • 250556Z AUTO 26009KT 10SM CLR 08/03 A3004 RMK AO2 SLP166 T00780028 10167 20078 50004

TAF KCTB
Valid from the 25 at 06:00 until the 26 at 06:00 UTC


250534Z 2506/2606 26010KT P6SM SKC
FM251500 24014G22KT P6SM FEW250
FM252100 25017G26KT P6SM SCT070 BKN100
KZLC FIR / North America



MET'MAP, your aeronautical weather chart ! - Copyright ORBIFLY December 2007 - Disclaimer

ORBIFLY MET'MAP TEAM :

Programming & Development : Alexandra Zaïnal
Concept & original design : Baudouin d'Aumeries
Assistance for programming : Marc-Olivier Méhu
Technical & hardware support : Manuel Goepfert

Contact : metmap@orbifly.com




SOURCES & CREDITS :

   NOAA       Earth
Advisory